createdAt,value
2023-11-18T00:01:49.673Z,100005.34
2023-11-18T00:05:52.615Z,100001.22
2023-11-18T00:09:55.414Z,100001.03
2023-11-18T00:14:00.899Z,99968.19
2023-11-18T00:18:04.656Z,99987.34
2023-11-18T00:22:08.321Z,99956.00
2023-11-18T00:26:11.578Z,99978.97
2023-11-18T00:30:16.514Z,99973.34
2023-11-18T00:34:19.560Z,99981.19
2023-11-18T00:38:22.270Z,99977.78
2023-11-18T00:42:25.038Z,99964.97
2023-11-18T00:46:29.622Z,99881.66
2023-11-18T00:50:32.732Z,99970.13
2023-11-18T00:54:36.980Z,99976.00
2023-11-18T00:58:41.640Z,99819.03
2023-11-18T01:02:48.189Z,99953.75
2023-11-18T01:06:52.546Z,99966.13
2023-11-18T01:10:55.522Z,99962.91
2023-11-18T01:14:58.358Z,99973.75
2023-11-18T01:19:02.569Z,99965.50
2023-11-18T01:23:05.783Z,99979.44
2023-11-18T01:27:10.913Z,99931.44
2023-11-18T01:31:14.588Z,99973.94
2023-11-18T01:35:19.109Z,99978.00
2023-11-18T01:39:22.109Z,99974.59
2023-11-18T01:43:25.209Z,99980.25
2023-11-18T01:47:28.982Z,100001.81
2023-11-18T01:51:33.176Z,99977.97
2023-11-18T01:55:36.555Z,99983.16
2023-11-18T01:59:41.758Z,99994.50
2023-11-18T02:03:44.800Z,100001.38
2023-11-18T02:07:49.167Z,99988.44
2023-11-18T02:11:56.192Z,99978.16
2023-11-18T02:15:59.688Z,99983.03
2023-11-18T02:20:07.353Z,99976.44
2023-11-18T02:24:12.426Z,99971.00
2023-11-18T02:28:16.972Z,99826.09
2023-11-18T02:32:24.953Z,99976.44
2023-11-18T02:36:37.194Z,99984.44
2023-11-18T02:40:45.343Z,99971.72
2023-11-18T02:44:51.125Z,99973.75
2023-11-18T02:48:55.158Z,99810.41
2023-11-18T02:52:58.237Z,99981.47
2023-11-18T02:57:01.073Z,99988.78
2023-11-18T03:01:06.343Z,99974.19
2023-11-18T03:05:12.920Z,99979.81
2023-11-18T03:09:16.543Z,99977.69
2023-11-18T03:13:19.424Z,99970.97
2023-11-18T03:17:24.143Z,99988.56
2023-11-18T03:21:27.751Z,99993.44
2023-11-18T03:25:30.685Z,99812.75
2023-11-18T03:29:33.551Z,99989.59
2023-11-18T03:33:37.756Z,99991.44
2023-11-18T03:37:43.266Z,99980.13
2023-11-18T03:41:46.925Z,99985.56
2023-11-18T03:45:49.671Z,99981.72
2023-11-18T03:49:56.042Z,99803.81
2023-11-18T03:53:58.906Z,99887.03
2023-11-18T03:58:02.443Z,99969.63
2023-11-18T04:02:05.654Z,99950.56
2023-11-18T04:06:10.445Z,99954.75
2023-11-18T04:10:13.476Z,99958.16
2023-11-18T04:14:16.202Z,99954.31
2023-11-18T04:18:19.296Z,99906.72
2023-11-18T04:22:23.573Z,99953.84
2023-11-18T04:26:26.811Z,99955.66
2023-11-18T04:30:30.052Z,99948.03
2023-11-18T04:34:34.070Z,99963.34
2023-11-18T04:38:38.172Z,99960.72
2023-11-18T04:42:41.611Z,99944.66
2023-11-18T04:46:45.138Z,99962.09
2023-11-18T04:50:47.977Z,99960.72
2023-11-18T04:54:52.178Z,99963.09
2023-11-18T04:58:56.103Z,99964.75
2023-11-18T05:03:00.238Z,99962.50
2023-11-18T05:07:03.500Z,99955.59
2023-11-18T05:11:08.085Z,99942.53
2023-11-18T05:15:11.033Z,99944.56
2023-11-18T05:19:13.929Z,99931.44
2023-11-18T05:23:17.145Z,99934.91
2023-11-18T05:27:21.722Z,99932.66
2023-11-18T05:31:24.453Z,99922.97
2023-11-18T05:35:29.617Z,99928.44
2023-11-18T05:39:32.769Z,99930.22
2023-11-18T05:43:41.194Z,99924.03
2023-11-18T05:47:44.358Z,99924.94
2023-11-18T05:51:47.425Z,99909.69
2023-11-18T05:55:51.069Z,99904.09
2023-11-18T05:59:56.144Z,99908.94
2023-11-18T06:03:59.095Z,99898.19
2023-11-18T06:08:01.973Z,99895.44
2023-11-18T06:12:10.043Z,99900.09
2023-11-18T06:16:16.713Z,99842.84
2023-11-18T06:20:21.625Z,99896.03
2023-11-18T06:24:24.380Z,99901.53
2023-11-18T06:28:27.333Z,99911.03
2023-11-18T06:32:32.189Z,99898.31
2023-11-18T06:36:34.965Z,99883.13
2023-11-18T06:40:37.890Z,99891.28
2023-11-18T06:44:40.602Z,99871.44
2023-11-18T06:48:44.863Z,99906.81
2023-11-18T06:52:48.189Z,99897.16
2023-11-18T06:56:52.696Z,99753.75
2023-11-18T07:00:55.501Z,99901.41
2023-11-18T07:04:59.760Z,99888.69
2023-11-18T07:09:02.605Z,99880.03
2023-11-18T07:13:05.309Z,99879.63
2023-11-18T07:17:09.721Z,99882.88
2023-11-18T07:21:15.655Z,99899.22
2023-11-18T07:25:18.519Z,99921.22
2023-11-18T07:29:21.378Z,99913.16
2023-11-18T07:33:24.374Z,99914.75
2023-11-18T07:37:29.244Z,99845.03
2023-11-18T07:41:34.106Z,99873.63
2023-11-18T07:45:38.696Z,99864.53
2023-11-18T07:49:42.366Z,99877.47
2023-11-18T07:53:46.477Z,99884.56
2023-11-18T07:57:49.083Z,99897.47
2023-11-18T08:01:51.897Z,99907.16
2023-11-18T08:05:54.644Z,99908.00
2023-11-18T08:09:58.914Z,99893.69
2023-11-18T08:14:01.737Z,99838.50
2023-11-18T08:18:05.313Z,99887.81
2023-11-18T08:22:10.288Z,99878.72
2023-11-18T08:26:15.490Z,99868.63
2023-11-18T08:30:19.428Z,99874.50
2023-11-18T08:34:22.334Z,99864.03
2023-11-18T08:38:25.644Z,99874.72
2023-11-18T08:42:30.533Z,99847.84
2023-11-18T08:46:33.365Z,99875.53
2023-11-18T08:50:37.307Z,99883.00
2023-11-18T08:54:59.897Z,99889.88
2023-11-18T08:59:04.553Z,99887.88
2023-11-18T09:03:07.760Z,99897.56
2023-11-18T09:07:11.371Z,99894.53
2023-11-18T09:11:16.809Z,99895.13
2023-11-18T09:15:23.693Z,99904.84
2023-11-18T09:19:26.538Z,99902.44
2023-11-18T09:23:30.041Z,99895.94
2023-11-18T09:27:34.217Z,99905.06
2023-11-18T09:31:38.778Z,99910.88
2023-11-18T09:35:42.177Z,99908.72
2023-11-18T09:39:47.156Z,99902.84
2023-11-18T09:43:54.226Z,99908.09
2023-11-18T09:48:02.664Z,99906.69
2023-11-18T09:52:07.048Z,99902.84
2023-11-18T09:56:19.950Z,99886.03
2023-11-18T10:00:27.619Z,99918.81
2023-11-18T10:04:32.744Z,99902.03
2023-11-18T10:08:39.189Z,99902.44
2023-11-18T10:12:42.660Z,99909.13
2023-11-18T10:16:48.129Z,99907.50
2023-11-18T10:20:53.424Z,99899.63
2023-11-18T10:24:56.740Z,99884.66
2023-11-18T10:29:08.294Z,99879.00
2023-11-18T10:33:12.907Z,99876.97
2023-11-18T10:37:18.266Z,99871.09
2023-11-18T10:41:21.432Z,99832.69
2023-11-18T10:45:28.865Z,99836.16
2023-11-18T10:49:38.384Z,99801.00
2023-11-18T10:53:54.840Z,99824.78
2023-11-18T10:58:02.660Z,99703.91
2023-11-18T11:02:22.756Z,99817.28
2023-11-18T11:06:26.289Z,99715.50
2023-11-18T11:10:30.590Z,99794.78
2023-11-18T11:14:38.066Z,99788.31
2023-11-18T11:18:46.417Z,99753.47
2023-11-18T11:22:59.480Z,99789.69
2023-11-18T11:27:18.365Z,99786.88
2023-11-18T11:31:24.777Z,99773.50
2023-11-18T11:35:34.370Z,99750.31
2023-11-18T11:39:37.902Z,99760.63
2023-11-18T11:43:42.471Z,99749.47
2023-11-18T11:47:47.703Z,99724.84
2023-11-18T11:51:55.332Z,99618.50
2023-11-18T11:56:06.633Z,99742.91
2023-11-18T12:00:17.671Z,99755.47
2023-11-18T12:04:26.732Z,99750.41
2023-11-18T12:08:31.197Z,99696.16
2023-11-18T12:12:36.081Z,99731.16
2023-11-18T12:17:12.670Z,99721.78
2023-11-18T12:21:56.123Z,99713.56
2023-11-18T12:25:59.757Z,99711.72
2023-11-18T12:30:03.374Z,99706.47
2023-11-18T12:34:11.531Z,99692.09
2023-11-18T12:38:59.058Z,99677.88
2023-11-18T12:43:14.575Z,99669.34
2023-11-18T12:47:22.222Z,99601.06
2023-11-18T12:51:26.550Z,99645.63
2023-11-18T12:55:32.641Z,99531.75
2023-11-18T12:59:35.814Z,99418.84
2023-11-18T13:03:39.014Z,99476.47
2023-11-18T13:07:44.509Z,99395.56
2023-11-18T13:11:48.721Z,99412.78
2023-11-18T13:15:55.020Z,99554.94
2023-11-18T13:19:59.386Z,99405.50
2023-11-18T13:24:09.874Z,99424.00
2023-11-18T13:28:13.862Z,99551.44
2023-11-18T13:36:34.340Z,99549.00
2023-11-18T13:40:48.959Z,99538.59
2023-11-18T13:44:54.144Z,99542.88
2023-11-18T13:48:57.414Z,99576.13
2023-11-18T13:53:00.387Z,99577.50
2023-11-18T13:57:05.285Z,99574.09
2023-11-18T14:01:09.687Z,99547.97
2023-11-18T14:05:18.483Z,99562.28
2023-11-18T14:09:22.676Z,99567.38
2023-11-18T14:13:36.192Z,99546.91
2023-11-18T14:17:39.068Z,99544.06
2023-11-18T14:21:42.772Z,99543.47
2023-11-18T14:25:45.511Z,99524.41
2023-11-18T14:29:50.031Z,99516.50
2023-11-18T14:33:52.774Z,99518.91
2023-11-18T14:37:55.763Z,99509.41
2023-11-18T14:41:59.295Z,99491.56
2023-11-18T14:46:04.991Z,99478.78
2023-11-18T14:50:19.005Z,99465.97
2023-11-18T14:54:22.021Z,99417.94
2023-11-18T14:58:24.781Z,99438.63
2023-11-18T15:02:29.888Z,99414.13
2023-11-18T15:06:32.753Z,99425.91
2023-11-18T15:10:35.491Z,99422.72
2023-11-18T15:14:40.216Z,99431.03
2023-11-18T15:18:48.437Z,99272.97
2023-11-18T15:22:51.932Z,99419.16
2023-11-18T15:26:55.561Z,99438.66
2023-11-18T15:30:58.477Z,99443.72
2023-11-18T15:35:02.691Z,99395.41
2023-11-18T15:39:07.179Z,99414.19
2023-11-18T15:43:12.784Z,99376.53
2023-11-18T15:47:16.380Z,99361.75
2023-11-18T15:51:23.585Z,99320.06
2023-11-18T15:55:26.504Z,99344.84
2023-11-18T15:59:29.713Z,99369.91
2023-11-18T16:03:32.554Z,99253.22
2023-11-18T16:07:36.762Z,99374.91
2023-11-18T16:11:39.508Z,99371.69
2023-11-18T16:15:42.490Z,99365.41
2023-11-18T16:19:45.871Z,99372.53
2023-11-18T16:23:50.472Z,99362.44
2023-11-18T16:27:54.394Z,99351.91
2023-11-18T16:31:57.421Z,99333.75
2023-11-18T16:36:00.852Z,99331.09
2023-11-18T16:40:05.848Z,99336.38
2023-11-18T16:44:10.857Z,99336.13
2023-11-18T16:48:13.564Z,99341.03
2023-11-18T16:52:16.922Z,99331.91
2023-11-18T16:56:21.339Z,99277.03
2023-11-18T17:00:24.994Z,99313.13
2023-11-18T17:04:27.907Z,99295.31
2023-11-18T17:08:31.290Z,99222.56
2023-11-18T17:12:36.816Z,99264.97
2023-11-18T17:16:39.666Z,99252.84
2023-11-18T17:20:42.668Z,99249.19
2023-11-18T17:24:45.490Z,99242.91
2023-11-18T17:28:51.689Z,99281.34
2023-11-18T17:32:54.859Z,99305.81
2023-11-18T17:36:58.166Z,99320.78
2023-11-18T17:41:00.911Z,99334.31
2023-11-18T17:45:06.658Z,99300.31
2023-11-18T17:49:10.042Z,99259.97
2023-11-18T17:53:12.815Z,99316.00
2023-11-18T17:57:16.119Z,99313.38
2023-11-18T18:01:21.183Z,99314.97
2023-11-18T18:05:25.477Z,99140.75
2023-11-18T18:09:28.615Z,99286.28
2023-11-18T18:13:32.707Z,99279.41
2023-11-18T18:17:37.950Z,99267.06
2023-11-18T18:21:41.250Z,99255.06
2023-11-18T18:25:44.388Z,99229.75
2023-11-18T18:29:47.421Z,99197.97
2023-11-18T18:33:52.351Z,99161.94
2023-11-18T18:37:55.165Z,99136.66
2023-11-18T18:41:58.451Z,99112.75
2023-11-18T18:46:01.399Z,99124.44
2023-11-18T18:50:08.623Z,99127.63
2023-11-18T18:54:12.347Z,99123.97
2023-11-18T18:58:15.175Z,99118.25
2023-11-18T19:02:18.041Z,99138.16
2023-11-18T19:06:22.271Z,99169.28
2023-11-18T19:10:26.172Z,99171.69
2023-11-18T19:14:29.110Z,99146.50
2023-11-18T19:18:31.884Z,99138.63
2023-11-18T19:22:36.275Z,99171.00
2023-11-18T19:26:39.183Z,99169.03
2023-11-18T19:30:41.928Z,99165.16
2023-11-18T19:34:44.645Z,99165.38
2023-11-18T19:38:49.001Z,99159.06
2023-11-18T19:42:51.990Z,99170.63
2023-11-18T19:46:54.732Z,99172.47
2023-11-18T19:50:57.816Z,99166.97
2023-11-18T19:55:02.073Z,99175.69
2023-11-18T19:59:05.964Z,99181.16
2023-11-18T20:03:09.064Z,99170.88
2023-11-18T20:07:11.873Z,99171.09
2023-11-18T20:11:16.077Z,99151.53
2023-11-18T20:15:19.093Z,99188.03
2023-11-18T20:19:22.467Z,99181.75
2023-11-18T20:23:27.239Z,99164.81
2023-11-18T20:27:31.409Z,99146.25
2023-11-18T20:31:34.143Z,99151.59
2023-11-18T20:35:37.093Z,99148.84
2023-11-18T20:39:41.690Z,99145.97
2023-11-18T20:43:46.165Z,99136.81
2023-11-18T20:47:49.864Z,99115.72
2023-11-18T20:51:54.220Z,99116.28
2023-11-18T20:55:56.956Z,99126.97
2023-11-18T21:00:01.376Z,99126.50
2023-11-18T21:04:04.361Z,99096.03
2023-11-18T21:08:09.154Z,99099.44
2023-11-18T21:12:18.205Z,99109.41
2023-11-18T21:16:23.731Z,99110.56
2023-11-18T21:20:26.499Z,99115.38
2023-11-18T21:24:29.272Z,99119.03
2023-11-18T21:28:32.362Z,99106.88
2023-11-18T21:32:42.714Z,99096.13
2023-11-18T21:36:45.768Z,99081.69
2023-11-18T21:40:48.670Z,99087.25
2023-11-18T21:44:52.205Z,99066.44
2023-11-18T21:48:56.357Z,99048.25
2023-11-18T21:52:59.848Z,99067.47
2023-11-18T21:57:02.634Z,99069.63
2023-11-18T22:01:06.665Z,99068.28
2023-11-18T22:05:11.232Z,99019.91
2023-11-18T22:09:14.259Z,99040.66
2023-11-18T22:13:17.096Z,99034.34
2023-11-18T22:17:20.145Z,99047.53
2023-11-18T22:21:24.799Z,98990.75
2023-11-18T22:25:28.183Z,99045.44
2023-11-18T22:29:31.249Z,99044.63
2023-11-18T22:33:35.940Z,99053.34
2023-11-18T22:37:40.187Z,99046.22
2023-11-18T22:41:42.997Z,99043.84
2023-11-18T22:45:47.618Z,99029.88
2023-11-18T22:49:50.375Z,99023.34
2023-11-18T22:53:55.811Z,99025.72
2023-11-18T22:57:58.875Z,98977.84
2023-11-18T23:02:03.415Z,99021.56
2023-11-18T23:06:10.783Z,99022.69
2023-11-18T23:10:16.152Z,99021.91
2023-11-18T23:14:18.910Z,99011.13
2023-11-18T23:18:21.779Z,99012.72
2023-11-18T23:22:25.223Z,99002.75
2023-11-18T23:26:30.776Z,98995.63
2023-11-18T23:30:33.874Z,99001.97
2023-11-18T23:34:36.607Z,98975.09
2023-11-18T23:38:39.982Z,99007.22
2023-11-18T23:42:44.697Z,98998.81
2023-11-18T23:46:47.549Z,98987.50
2023-11-18T23:50:51.397Z,98987.81
2023-11-18T23:54:53.988Z,98990.13
2023-11-18T23:58:58.804Z,98976.00
